Time;durP1;ratioP1;P1;durP2;ratioP2;P2;SDS_P1;SDS_P2;PMS_P1;PMS_P2;Temp;Humidity;BMP_temperature;BMP_pressure;BME280_temperature;BME280_humidity;BME280_pressure;Samples;Min_cycle;Max_cycle;Signal;HPM_P1;HPM_P2
2024/02/26 00:00:34;;;;;;;36.50;9.30;;;;;;;-147.86;100.00;-17609.17;105513;1256;60062;-54
2024/02/26 00:03:02;;;;;;;32.30;9.90;;;;;;;-147.86;100.00;-17609.17;105598;1256;71728;-53
2024/02/26 00:05:31;;;;;;;25.80;8.70;;;;;;;-147.86;100.00;-17609.17;105830;1252;63199;-54
2024/02/26 00:07:59;;;;;;;31.50;8.20;;;;;;;-147.86;100.00;-17609.17;105871;1254;71390;-56
2024/02/26 00:10:30;;;;;;;39.90;9.60;;;;;;;-147.86;100.00;-17609.17;105850;1257;59676;-54
2024/02/26 00:12:58;;;;;;;29.70;8.40;;;;;;;-147.86;100.00;-17609.17;105683;1257;59697;-51
2024/02/26 00:15:27;;;;;;;33.50;9.30;;;;;;;-147.86;100.00;-17609.17;105707;1257;72049;-52
2024/02/26 00:17:55;;;;;;;23.50;8.50;;;;;;;-147.86;100.00;-17609.17;105866;1253;63119;-56
2024/02/26 00:20:23;;;;;;;23.90;8.40;;;;;;;-147.86;100.00;-17609.17;105666;1254;71405;-55
2024/02/26 00:22:51;;;;;;;24.00;8.20;;;;;;;-147.86;100.00;-17609.17;105641;1253;59743;-56
2024/02/26 00:25:19;;;;;;;26.40;8.00;;;;;;;-147.86;100.00;-17609.17;105882;1253;59548;-50
2024/02/26 00:27:47;;;;;;;21.70;9.10;;;;;;;-147.86;100.00;-17609.17;105734;1253;71777;-54
2024/02/26 00:30:15;;;;;;;19.00;8.70;;;;;;;-147.86;100.00;-17609.17;105832;1253;63427;-54
2024/02/26 00:32:43;;;;;;;23.30;7.80;;;;;;;-147.86;100.00;-17609.17;105822;1253;71388;-53
2024/02/26 00:35:10;;;;;;;23.00;8.60;;;;;;;-147.86;100.00;-17609.17;105863;1253;59914;-55
2024/02/26 00:37:38;;;;;;;22.90;7.80;;;;;;;-147.86;100.00;-17609.17;105865;1256;59623;-52
2024/02/26 00:40:07;;;;;;;18.10;7.80;;;;;;;-147.86;100.00;-17609.17;105870;1253;72977;-53
2024/02/26 00:42:34;;;;;;;23.10;7.90;;;;;;;-147.86;100.00;-17609.17;105927;1253;63251;-55
2024/02/26 00:45:02;;;;;;;19.60;8.40;;;;;;;-147.86;100.00;-17609.17;105678;1253;71372;-51
2024/02/26 00:47:30;;;;;;;20.10;8.10;;;;;;;-147.86;100.00;-17609.17;105850;1253;59765;-51
2024/02/26 00:49:58;;;;;;;19.70;6.80;;;;;;;-147.86;100.00;-17609.17;105849;1257;59647;-56
2024/02/26 00:52:26;;;;;;;16.40;7.20;;;;;;;-147.86;100.00;-17609.17;105881;1253;72927;-54
2024/02/26 00:54:53;;;;;;;18.00;7.50;;;;;;;-147.86;100.00;-17609.17;105727;1253;64463;-51
2024/02/26 00:57:21;;;;;;;20.40;8.20;;;;;;;-147.86;100.00;-17609.17;105826;1257;72622;-50
2024/02/26 00:59:50;;;;;;;18.40;7.50;;;;;;;-147.86;100.00;-17609.17;105903;1253;60547;-50
2024/02/26 01:02:18;;;;;;;16.70;7.30;;;;;;;-147.86;100.00;-17609.17;105861;1257;60509;-51
2024/02/26 01:04:46;;;;;;;23.60;8.10;;;;;;;-147.86;100.00;-17609.17;105819;1253;73774;-51
2024/02/26 01:07:13;;;;;;;21.20;7.90;;;;;;;-147.86;100.00;-17609.17;105682;1254;63121;-58
2024/02/26 01:09:42;;;;;;;17.40;8.00;;;;;;;-147.86;100.00;-17609.17;105844;1253;71392;-52
2024/02/26 01:12:10;;;;;;;18.50;8.40;;;;;;;-147.86;100.00;-17609.17;105844;1253;60448;-54
2024/02/26 01:14:38;;;;;;;18.40;7.10;;;;;;;-147.86;100.00;-17609.17;105815;1257;60445;-52
2024/02/26 01:17:06;;;;;;;25.20;7.80;;;;;;;-147.86;100.00;-17609.17;105635;1253;74113;-56
2024/02/26 01:19:34;;;;;;;18.00;7.50;;;;;;;-147.86;100.00;-17609.17;105807;1253;64463;-54
2024/02/26 01:22:02;;;;;;;19.90;8.90;;;;;;;-147.86;100.00;-17609.17;105675;1257;71817;-52
2024/02/26 01:24:30;;;;;;;17.90;7.70;;;;;;;-147.86;100.00;-17609.17;105668;1253;60521;-51
2024/02/26 01:26:58;;;;;;;31.90;8.60;;;;;;;-147.86;100.00;-17609.17;105894;1252;60731;-56
2024/02/26 01:29:26;;;;;;;27.00;8.50;;;;;;;-147.86;100.00;-17609.17;105832;1253;72935;-54
2024/02/26 01:31:54;;;;;;;19.40;7.50;;;;;;;-147.86;100.00;-17609.17;105710;1258;63138;-54
2024/02/26 01:34:22;;;;;;;24.50;8.20;;;;;;;-147.86;100.00;-17609.17;105901;1253;71412;-57
2024/02/26 01:36:50;;;;;;;19.50;8.20;;;;;;;-147.86;100.00;-17609.17;105683;1257;60549;-54
2024/02/26 01:39:18;;;;;;;18.40;8.00;;;;;;;-147.86;100.00;-17609.17;105728;1256;60760;-50
2024/02/26 01:41:46;;;;;;;19.50;7.10;;;;;;;-147.86;100.00;-17609.17;105696;1253;72701;-54
2024/02/26 01:44:13;;;;;;;18.00;7.60;;;;;;;-147.86;100.00;-17609.17;105911;1257;64381;-58
2024/02/26 01:46:41;;;;;;;26.00;8.20;;;;;;;-147.86;100.00;-17609.17;105813;1253;72632;-54
2024/02/26 01:49:11;;;;;;;19.70;7.90;;;;;;;-147.86;100.00;-17609.17;105689;1253;60554;-47
2024/02/26 01:51:38;;;;;;;27.30;7.60;;;;;;;-147.86;100.00;-17609.17;105733;1256;60416;-55
2024/02/26 01:54:06;;;;;;;22.20;7.80;;;;;;;-147.86;100.00;-17609.17;105677;1253;72608;-51
2024/02/26 01:56:35;;;;;;;20.10;7.10;;;;;;;-147.86;100.00;-17609.17;105725;1253;64376;-54
2024/02/26 01:59:03;;;;;;;22.90;8.00;;;;;;;-147.86;100.00;-17609.17;105882;1253;71461;-52
2024/02/26 02:01:31;;;;;;;18.00;7.40;;;;;;;-147.86;100.00;-17609.17;105654;1260;60567;-52
2024/02/26 02:04:00;;;;;;;16.60;7.30;;;;;;;-147.86;100.00;-17609.17;105917;1252;60344;-51
2024/02/26 02:06:28;;;;;;;32.80;6.70;;;;;;;-147.86;100.00;-17609.17;105779;1253;71597;-52
2024/02/26 02:08:56;;;;;;;25.80;7.60;;;;;;;-147.86;100.00;-17609.17;105694;1253;63116;-51
2024/02/26 02:11:24;;;;;;;21.90;7.30;;;;;;;-147.86;100.00;-17609.17;105737;1257;72584;-51
2024/02/26 02:13:52;;;;;;;25.00;8.60;;;;;;;-147.86;100.00;-17609.17;105650;1259;60504;-53
2024/02/26 02:16:20;;;;;;;14.70;7.60;;;;;;;-147.86;100.00;-17609.17;105892;1257;60381;-54
2024/02/26 02:18:48;;;;;;;24.90;8.20;;;;;;;-147.86;100.00;-17609.17;105653;1257;72307;-55
2024/02/26 02:21:15;;;;;;;37.20;8.20;;;;;;;-147.86;100.00;-17609.17;105844;1253;63126;-53
2024/02/26 02:23:46;;;;;;;26.70;7.70;;;;;;;-147.86;100.00;-17609.17;105865;1258;72603;-52
2024/02/26 02:26:14;;;;;;;36.00;8.60;;;;;;;-147.86;100.00;-17609.17;105904;1257;60550;-52
2024/02/26 02:28:42;;;;;;;14.40;8.00;;;;;;;-147.86;100.00;-17609.17;105679;1259;60436;-56
2024/02/26 02:31:10;;;;;;;20.30;8.30;;;;;;;-147.86;100.00;-17609.17;105640;1253;72547;-55
2024/02/26 02:33:38;;;;;;;23.80;7.20;;;;;;;-147.86;100.00;-17609.17;105663;1261;63281;-57
2024/02/26 02:36:09;;;;;;;18.80;7.10;;;;;;;-147.86;100.00;-17609.17;105823;1257;72675;-53
2024/02/26 02:38:37;;;;;;;15.90;6.90;;;;;;;-147.86;100.00;-17609.17;105886;1253;60531;-51
2024/02/26 02:41:05;;;;;;;30.20;7.60;;;;;;;-147.86;100.00;-17609.17;105855;1257;60445;-53
2024/02/26 02:43:33;;;;;;;16.60;7.10;;;;;;;-147.86;100.00;-17609.17;105751;1253;72551;-51
2024/02/26 02:46:02;;;;;;;16.60;7.40;;;;;;;-147.86;100.00;-17609.17;105828;1253;64080;-52
2024/02/26 02:48:30;;;;;;;21.30;7.50;;;;;;;-147.86;100.00;-17609.17;105877;1253;71403;-48
2024/02/26 02:50:58;;;;;;;20.10;7.60;;;;;;;-147.86;100.00;-17609.17;105719;1253;60438;-56
2024/02/26 02:53:26;;;;;;;24.90;7.10;;;;;;;-147.86;100.00;-17609.17;105760;1257;60537;-50
2024/02/26 02:55:54;;;;;;;15.10;6.80;;;;;;;-147.86;100.00;-17609.17;105737;1253;73838;-54
2024/02/26 02:58:22;;;;;;;25.20;7.70;;;;;;;-147.86;100.00;-17609.17;105804;1253;62932;-50
2024/02/26 03:00:50;;;;;;;17.40;6.90;;;;;;;-147.86;100.00;-17609.17;105851;1257;71389;-50
2024/02/26 03:03:18;;;;;;;19.50;7.40;;;;;;;-147.86;100.00;-17609.17;105805;1254;60473;-55
2024/02/26 03:05:46;;;;;;;29.40;7.60;;;;;;;-147.86;100.00;-17609.17;105874;1257;60558;-51
2024/02/26 03:08:14;;;;;;;19.60;7.00;;;;;;;-147.86;100.00;-17609.17;105829;1254;73385;-51
2024/02/26 03:10:43;;;;;;;19.00;7.40;;;;;;;-147.86;100.00;-17609.17;105805;1257;63230;-56
2024/02/26 03:13:11;;;;;;;20.40;7.30;;;;;;;-147.86;100.00;-17609.17;105852;1253;72106;-55
2024/02/26 03:15:40;;;;;;;22.30;7.20;;;;;;;-147.86;100.00;-17609.17;105882;1257;60553;-55
2024/02/26 03:18:08;;;;;;;16.50;6.70;;;;;;;-147.86;100.00;-17609.17;105739;1257;60496;-53
2024/02/26 03:20:37;;;;;;;12.30;6.80;;;;;;;-147.86;100.00;-17609.17;105896;1253;72638;-57
2024/02/26 03:23:04;;;;;;;13.60;7.40;;;;;;;-147.86;100.00;-17609.17;105886;1253;63191;-55
2024/02/26 03:25:32;;;;;;;17.40;7.70;;;;;;;-147.86;100.00;-17609.17;105682;1253;70853;-53
2024/02/26 03:28:00;;;;;;;21.50;7.30;;;;;;;-147.86;100.00;-17609.17;105816;1253;60554;-54
2024/02/26 03:30:27;;;;;;;20.00;7.30;;;;;;;-147.86;100.00;-17609.17;105859;1259;60522;-52
2024/02/26 03:32:55;;;;;;;13.90;7.00;;;;;;;-147.86;100.00;-17609.17;105877;1253;72699;-54
2024/02/26 03:35:23;;;;;;;19.70;8.20;;;;;;;-147.86;100.00;-17609.17;105722;1254;63314;-53
2024/02/26 03:37:51;;;;;;;27.80;7.70;;;;;;;-147.86;100.00;-17609.17;105761;1253;71423;-53
2024/02/26 03:40:19;;;;;;;26.70;8.10;;;;;;;-147.86;100.00;-17609.17;105864;1257;60789;-52
2024/02/26 03:42:47;;;;;;;23.70;7.40;;;;;;;-147.86;100.00;-17609.17;105892;1253;60432;-54
2024/02/26 03:45:16;;;;;;;28.10;7.60;;;;;;;-147.86;100.00;-17609.17;105816;1253;73830;-49
2024/02/26 03:47:44;;;;;;;18.80;7.90;;;;;;;-147.86;100.00;-17609.17;105784;1255;63117;-54
2024/02/26 03:50:12;;;;;;;16.30;7.10;;;;;;;-147.86;100.00;-17609.17;105770;1253;71367;-51
2024/02/26 03:52:39;;;;;;;38.00;8.10;;;;;;;-147.86;100.00;-17609.17;105747;1253;60424;-55
2024/02/26 03:55:07;;;;;;;21.90;9.30;;;;;;;-147.86;100.00;-17609.17;105809;1255;60438;-54
2024/02/26 03:57:36;;;;;;;22.60;9.00;;;;;;;-147.86;100.00;-17609.17;105834;1253;72894;-54
2024/02/26 04:00:04;;;;;;;17.30;8.10;;;;;;;-147.86;100.00;-17609.17;105872;1256;63095;-49
2024/02/26 04:02:37;;;;;;;14.70;7.70;;;;;;;-147.86;100.00;-17609.17;105849;1258;71763;-55
2024/02/26 04:05:05;;;;;;;19.50;8.40;;;;;;;-147.86;100.00;-17596.25;105819;1255;60557;-53
2024/02/26 04:07:33;;;;;;;20.30;7.80;;;;;;;-147.86;100.00;-17557.42;105701;1257;60407;-51
2024/02/26 04:10:00;;;;;;;23.70;7.50;;;;;;;-147.86;100.00;-17478.87;105841;1253;72600;-51
2024/02/26 04:12:33;;;;;;;19.70;8.20;;;;;;;-147.86;100.00;-17382.49;105716;1259;63226;-52
2024/02/26 04:15:01;;;;;;;21.70;8.70;;;;;;;-147.86;100.00;-17216.43;105825;1252;71415;-55
2024/02/26 04:17:29;;;;;;;23.90;7.70;;;;;;;-147.86;100.00;-17037.54;105753;1253;60545;-54
2024/02/26 04:19:56;;;;;;;18.70;7.60;;;;;;;-147.86;100.00;-16836.29;105880;1257;60381;-56
2024/02/26 04:22:24;;;;;;;17.10;6.40;;;;;;;-147.86;100.00;-16626.92;105720;1253;72626;-54
2024/02/26 04:24:52;;;;;;;26.90;6.90;;;;;;;-147.86;100.00;-16409.83;105829;1257;64689;-55
2024/02/26 04:27:19;;;;;;;20.20;6.20;;;;;;;-147.86;100.00;-16154.54;105856;1259;71629;-47
2024/02/26 04:29:47;;;;;;;27.20;6.90;;;;;;;-147.86;100.00;-15809.39;105762;1254;60594;-53
2024/02/26 04:32:15;;;;;;;18.60;6.90;;;;;;;-147.86;100.00;-15371.24;105899;1254;60391;-52
2024/02/26 04:34:43;;;;;;;20.00;6.50;;;;;;;-147.86;100.00;-14889.84;105867;1253;73344;-54
2024/02/26 04:37:10;;;;;;;28.70;6.10;;;;;;;-147.86;100.00;-14391.79;105867;1259;63499;-56
2024/02/26 04:39:38;;;;;;;26.50;6.30;;;;;;;-147.86;100.00;-13909.49;105835;1253;71451;-55
2024/02/26 04:42:06;;;;;;;18.50;6.50;;;;;;;-147.86;100.00;-13422.12;105852;1253;60448;-52
2024/02/26 04:44:34;;;;;;;22.00;5.80;;;;;;;-147.86;100.00;-12933.53;105881;1254;60556;-55
2024/02/26 04:47:01;;;;;;;23.10;6.30;;;;;;;-147.86;100.00;-12418.63;105886;1256;73879;-53
2024/02/26 04:49:29;;;;;;;21.50;8.10;;;;;;;-147.86;100.00;-11883.58;105848;1257;63342;-54
2024/02/26 04:51:57;;;;;;;28.30;6.80;;;;;;;-147.86;100.00;-11326.83;105872;1258;72689;-53
2024/02/26 04:54:25;;;;;;;27.50;5.60;;;;;;;-147.86;100.00;-10741.82;105716;1253;60430;-57
2024/02/26 04:56:53;;;;;;;16.60;7.00;;;;;;;-147.86;100.00;-10176.79;105844;1257;60592;-56
2024/02/26 04:59:21;;;;;;;19.10;6.30;;;;;;;-147.86;100.00;-9587.74;105837;1259;73815;-52
2024/02/26 05:01:51;;;;;;;29.80;6.50;;;;;;;-147.86;100.00;-9023.32;105721;1259;63196;-54
2024/02/26 05:04:19;;;;;;;22.90;6.50;;;;;;;-147.86;100.00;-8522.95;105901;1253;71391;-56
2024/02/26 05:06:47;;;;;;;19.10;5.90;;;;;;;-147.86;100.00;-7893.84;105801;1258;60710;-54
2024/02/26 05:09:15;;;;;;;15.50;7.90;;;;;;;-147.86;100.00;-7323.75;105813;1258;60482;-58
2024/02/26 05:11:43;;;;;;;17.30;5.80;;;;;;;-147.86;100.00;-6730.40;105761;1258;73883;-56
2024/02/26 05:14:11;;;;;;;20.80;6.20;;;;;;;-147.86;100.00;-6124.19;105881;1253;62440;-50
2024/02/26 05:16:38;;;;;;;33.50;7.80;;;;;;;-147.86;100.00;-5534.90;105817;1254;71445;-50
2024/02/26 05:19:06;;;;;;;26.70;6.00;;;;;;;-147.86;100.00;-4958.67;105818;1253;60432;-53
2024/02/26 05:21:34;;;;;;;23.90;5.60;;;;;;;-147.86;100.00;-4400.92;105922;1257;60359;-53
2024/02/26 05:24:03;;;;;;;18.00;5.50;;;;;;;-147.86;100.00;-3748.31;105811;1258;72656;-52
2024/02/26 05:26:31;;;;;;;31.10;7.10;;;;;;;-147.86;100.00;-3088.99;105898;1253;63136;-56
2024/02/26 05:28:59;;;;;;;35.00;6.10;;;;;;;-147.86;100.00;-2397.08;105814;1253;71414;-56
2024/02/26 05:31:28;;;;;;;28.70;5.50;;;;;;;-147.86;100.00;-1843.98;105805;1259;60556;-57
2024/02/26 05:33:57;;;;;;;21.80;5.80;;;;;;;-147.86;100.00;-1305.53;105862;1256;61005;-54
2024/02/26 05:36:25;;;;;;;21.90;5.30;;;;;;;-147.86;100.00;-824.30;105901;1259;72597;-57
2024/02/26 05:38:54;;;;;;;17.90;5.80;;;;;;;-147.86;100.00;-356.96;105837;1253;63166;-54
2024/02/26 05:41:26;;;;;;;22.00;5.70;;;;;;;-147.86;100.00;31.45;105827;1259;73073;-57
2024/02/26 05:43:54;;;;;;;17.10;5.50;;;;;;;-147.86;100.00;213.89;105713;1253;60825;-55
2024/02/26 05:46:22;;;;;;;23.30;6.70;;;;;;;-147.86;100.00;559.69;105768;1259;60347;-58
2024/02/26 05:48:51;;;;;;;27.50;6.90;;;;;;;-147.86;100.00;614.68;105666;1253;72837;-54
2024/02/26 05:51:20;;;;;;;25.40;6.40;;;;;;;-147.86;100.00;399.36;105550;1253;63173;-55
2024/02/26 05:53:53;;;;;;;30.20;5.50;;;;;;;-147.86;100.00;77.49;105784;1252;71377;-55
2024/02/26 05:56:22;;;;;;;28.40;5.60;;;;;;;-147.86;100.00;-876.56;105818;1259;60646;-51
2024/02/26 05:58:51;;;;;;;26.10;6.80;;;;;;;-147.86;100.00;-1340.04;105858;1257;60437;-56
2024/02/26 06:01:20;;;;;;;32.20;7.10;;;;;;;-147.86;100.00;-2445.88;105797;1253;72699;-58
2024/02/26 06:03:48;;;;;;;25.90;7.10;;;;;;;-147.86;100.00;-3311.55;105849;1259;63182;-53
2024/02/26 06:06:16;;;;;;;34.00;7.70;;;;;;;-147.86;100.00;-4152.62;105841;1253;73062;-50
2024/02/26 06:08:45;;;;;;;35.60;6.70;;;;;;;-147.86;100.00;-4969.93;105838;1257;60508;-54
2024/02/26 06:11:13;;;;;;;32.00;8.00;;;;;;;-147.86;100.00;-5801.76;105948;1253;60550;-52
2024/02/26 06:13:41;;;;;;;31.20;7.20;;;;;;;-147.86;100.00;-6693.72;105866;1253;72591;-55
2024/02/26 06:16:09;;;;;;;27.50;7.50;;;;;;;-147.86;100.00;-7545.26;105851;1259;64472;-53
2024/02/26 06:18:38;;;;;;;22.70;5.70;;;;;;;-147.86;100.00;-8145.84;105797;1253;71691;-51
2024/02/26 06:21:09;;;;;;;20.00;6.00;;;;;;;-147.86;100.00;-9265.20;105783;1253;60815;-54
2024/02/26 06:23:38;;;;;;;36.50;7.10;;;;;;;-147.86;100.00;-10934.54;105876;1253;60624;-51
2024/02/26 06:26:07;;;;;;;27.80;6.60;;;;;;;-147.86;100.00;-12330.63;105767;1259;75140;-56
2024/02/26 06:28:35;;;;;;;39.40;7.00;;;;;;;-147.86;100.00;-13092.55;105776;1255;63351;-51
2024/02/26 06:31:04;;;;;;;29.70;7.60;;;;;;;-147.86;100.00;-13912.59;105872;1259;71457;-50
2024/02/26 06:33:33;;;;;;;42.10;11.00;;;;;;;-147.86;100.00;-14610.16;105797;1253;60993;-54
2024/02/26 06:36:01;;;;;;;32.00;10.10;;;;;;;-147.86;100.00;-15507.78;105804;1259;61069;-54
2024/02/26 06:38:29;;;;;;;46.30;10.70;;;;;;;-147.86;100.00;-16083.97;105797;1254;74273;-49
2024/02/26 06:40:57;;;;;;;44.30;9.80;;;;;;;-147.86;100.00;-16604.55;105830;1253;63257;-51
2024/02/26 06:43:25;;;;;;;42.10;9.30;;;;;;;-147.86;100.00;-16982.03;105869;1252;71427;-57
2024/02/26 06:45:53;;;;;;;25.70;8.00;;;;;;;-147.86;100.00;-17234.55;105732;1253;60579;-54
2024/02/26 06:48:23;;;;;;;35.90;8.80;;;;;;;-147.86;100.00;-17377.96;105855;1257;60464;-52
2024/02/26 06:50:51;;;;;;;29.30;8.30;;;;;;;-147.86;100.00;-17553.18;105870;1256;73996;-52
2024/02/26 06:53:19;;;;;;;34.10;7.10;;;;;;;-147.86;100.00;-17609.17;105812;1253;63836;-54
2024/02/26 06:55:49;;;;;;;44.40;9.60;;;;;;;-147.86;100.00;-17609.17;105840;1258;71680;-57
2024/02/26 06:58:17;;;;;;;35.10;9.40;;;;;;;-147.86;100.00;-17609.17;105830;1253;60682;-51
2024/02/26 07:00:45;;;;;;;29.80;7.90;;;;;;;-147.86;100.00;-17609.17;105757;1259;60505;-54
2024/02/26 07:03:14;;;;;;;43.20;10.20;;;;;;;-147.86;100.00;-17609.17;105948;1253;76138;-51
2024/02/26 07:05:42;;;;;;;30.40;7.60;;;;;;;-147.86;100.00;-17609.17;105864;1253;64351;-54
2024/02/26 07:08:09;;;;;;;59.10;10.60;;;;;;;-147.86;100.00;-17609.17;105776;1253;75040;-50
2024/02/26 07:10:37;;;;;;;43.90;8.80;;;;;;;-147.86;100.00;-17609.17;105766;1258;60528;-50
2024/02/26 07:13:05;;;;;;;33.50;9.80;;;;;;;-147.86;100.00;-17609.17;105860;1253;62204;-55
2024/02/26 07:15:33;;;;;;;34.30;7.70;;;;;;;-147.86;100.00;-17609.17;105864;1258;73048;-56
2024/02/26 07:18:03;;;;;;;38.40;7.70;;;;;;;-147.86;100.00;-17609.17;105845;1257;65186;-51
2024/02/26 07:20:31;;;;;;;34.80;8.60;;;;;;;-147.86;100.00;-17609.17;105838;1257;73649;-55
2024/02/26 07:22:59;;;;;;;47.00;9.80;;;;;;;-147.86;100.00;-17609.17;105803;1257;60578;-55
2024/02/26 07:25:26;;;;;;;36.50;8.00;;;;;;;-147.86;100.00;-17609.17;105836;1253;60527;-52
2024/02/26 07:27:54;;;;;;;23.50;7.00;;;;;;;-147.86;100.00;-17609.17;105772;1260;73949;-54
2024/02/26 07:30:22;;;;;;;45.90;8.40;;;;;;;-147.86;100.00;-17609.17;105840;1257;65556;-56
2024/02/26 07:32:50;;;;;;;39.80;8.10;;;;;;;-147.86;100.00;-17609.17;105879;1257;72778;-52
2024/02/26 07:35:18;;;;;;;22.90;7.70;;;;;;;-147.86;100.00;-17609.17;105821;1258;62665;-53
2024/02/26 07:37:49;;;;;;;29.40;8.80;;;;;;;-147.86;100.00;-17609.17;105807;1257;60478;-57
2024/02/26 07:40:17;;;;;;;38.70;9.50;;;;;;;-147.86;100.00;-17609.17;105817;1253;74129;-51
2024/02/26 07:42:45;;;;;;;40.30;9.60;;;;;;;-147.86;100.00;-17609.17;105877;1259;65092;-53
2024/02/26 07:45:15;;;;;;;30.70;8.60;;;;;;;-147.86;100.00;-17609.17;105725;1257;72557;-50
2024/02/26 07:47:43;;;;;;;36.90;8.20;;;;;;;-147.86;100.00;-17609.17;105761;1257;61091;-50
2024/02/26 07:50:11;;;;;;;30.80;9.00;;;;;;;-147.86;100.00;-17609.17;105849;1257;60377;-53
2024/02/26 07:52:40;;;;;;;39.40;8.30;;;;;;;-147.86;100.00;-17609.17;105892;1259;74047;-51
2024/02/26 07:55:09;;;;;;;29.10;8.20;;;;;;;-147.86;100.00;-17609.17;105781;1258;64364;-54
2024/02/26 07:57:38;;;;;;;32.40;7.90;;;;;;;-147.86;100.00;-17609.17;105803;1259;74659;-52
2024/02/26 08:00:09;;;;;;;38.70;10.80;;;;;;;-147.86;100.00;-17609.17;105907;1259;60542;-52
2024/02/26 08:02:37;;;;;;;34.10;9.40;;;;;;;-147.86;100.00;-17609.17;105865;1257;61186;-55
2024/02/26 08:05:05;;;;;;;46.90;9.20;;;;;;;-147.86;100.00;-17609.17;105833;1257;75825;-56
2024/02/26 08:07:32;;;;;;;30.80;8.70;;;;;;;-147.86;100.00;-17609.17;105783;1259;64921;-46
2024/02/26 08:10:00;;;;;;;33.20;8.60;;;;;;;-147.86;100.00;-17609.17;105868;1255;72572;-53
2024/02/26 08:12:28;;;;;;;27.50;8.20;;;;;;;-147.86;100.00;-17609.17;105759;1259;60514;-51
2024/02/26 08:14:58;;;;;;;35.80;9.20;;;;;;;-147.86;100.00;-17609.17;105811;1253;60470;-56
2024/02/26 08:17:27;;;;;;;28.50;8.90;;;;;;;-147.86;100.00;-17609.17;105900;1256;74782;-55
2024/02/26 08:19:54;;;;;;;29.60;7.90;;;;;;;-147.86;100.00;-17609.17;105861;1258;64332;-50
2024/02/26 08:22:23;;;;;;;38.20;8.70;;;;;;;-147.86;100.00;-17609.17;105887;1259;71939;-55
2024/02/26 08:24:52;;;;;;;36.10;9.60;;;;;;;-147.86;100.00;-17609.17;105733;1266;60491;-55
2024/02/26 08:27:19;;;;;;;25.70;7.60;;;;;;;-147.86;100.00;-17609.17;105819;1254;60638;-53
2024/02/26 08:29:51;;;;;;;30.60;7.10;;;;;;;-147.86;100.00;-17609.17;105800;1259;76289;-56
2024/02/26 08:32:19;;;;;;;41.20;8.60;;;;;;;-147.86;100.00;-17609.17;105796;1257;64262;-54
2024/02/26 08:34:47;;;;;;;41.00;8.80;;;;;;;-147.86;100.00;-17609.17;105810;1257;72670;-51
2024/02/26 08:37:15;;;;;;;36.50;9.40;;;;;;;-147.86;100.00;-17609.17;105892;1259;61592;-55
2024/02/26 08:39:43;;;;;;;34.30;8.00;;;;;;;-147.86;100.00;-17609.17;105749;1259;60424;-56
2024/02/26 08:42:10;;;;;;;34.50;9.50;;;;;;;-147.86;100.00;-17609.17;105760;1254;73736;-52
2024/02/26 08:44:38;;;;;;;26.20;9.40;;;;;;;-147.86;100.00;-17609.17;105857;1253;62969;-49
2024/02/26 08:47:06;;;;;;;27.10;9.30;;;;;;;-147.86;100.00;-17609.17;105848;1257;72324;-56
2024/02/26 08:49:34;;;;;;;47.10;8.10;;;;;;;-147.86;100.00;-17609.17;105781;1254;60566;-50
2024/02/26 08:52:02;;;;;;;38.20;9.60;;;;;;;-147.86;100.00;-17609.17;105845;1253;62338;-48
2024/02/26 08:54:29;;;;;;;26.10;8.30;;;;;;;-147.86;100.00;-17609.17;105742;1259;75846;-54
2024/02/26 08:56:57;;;;;;;38.00;8.60;;;;;;;-147.86;100.00;-17609.17;105842;1256;63125;-53
2024/02/26 08:59:25;;;;;;;36.50;8.90;;;;;;;-147.86;100.00;-17509.90;105840;1259;74655;-55
2024/02/26 09:01:53;;;;;;;33.00;8.50;;;;;;;-147.86;100.00;-14596.55;105766;1259;60555;-54
2024/02/26 09:04:20;;;;;;;39.00;9.20;;;;;;;-147.86;100.00;-12275.01;105522;1253;310052;-55
2024/02/26 09:08:48;;;;;;;46.00;9.70;;;;;;;-147.86;100.00;-8666.34;102643;1295;600934;-53
2024/02/26 09:11:17;;;;;;;43.40;9.40;;;;;;;-147.86;100.00;-7627.59;104853;1272;59405;-54
2024/02/26 09:13:45;;;;;;;35.30;8.40;;;;;;;-147.86;100.00;-6835.97;104811;1265;62021;-51
2024/02/26 09:16:13;;;;;;;42.00;9.40;;;;;;;-147.86;100.00;-9061.98;104897;1271;73162;-57
2024/02/26 09:18:41;;;;;;;30.90;8.80;;;;;;;-147.86;100.00;-10743.01;104808;1272;66760;-54
2024/02/26 09:21:09;;;;;;;39.50;9.90;;;;;;;-147.86;100.00;-10347.51;104823;1267;74947;-54
2024/02/26 09:23:37;;;;;;;34.90;8.80;;;;;;;-147.86;100.00;-8913.65;104913;1269;254195;-56
2024/02/26 09:26:09;;;;;;;37.10;8.30;;;;;;;-147.86;100.00;-7924.36;105151;1269;59343;-51
2024/02/26 09:28:37;;;;;;;39.10;8.90;;;;;;;-147.86;100.00;-5103.70;105154;1264;73336;-53
2024/02/26 09:31:06;;;;;;;37.70;7.80;;;;;;;-147.86;100.00;-3024.05;105193;1266;64429;-54
2024/02/26 09:33:34;;;;;;;37.30;8.40;;;;;;;-147.86;99.99;-844.10;105108;1263;72620;-55
2024/02/26 09:36:04;;;;;;;33.40;8.40;;;;;;;-147.86;99.02;3668.79;105118;1268;59844;-50
2024/02/26 09:38:36;;;;;;;40.10;10.10;;;;;;;-147.86;97.39;12709.55;105122;1269;60090;-53
2024/02/26 09:41:19;;;;;;;41.80;9.50;;;;;;;-147.86;96.83;18880.80;105122;1269;73014;-56
2024/02/26 09:43:47;;;;;;;35.50;9.10;;;;;;;-147.86;94.85;29123.97;105117;1269;66691;-54
2024/02/26 09:46:17;;;;;;;29.30;8.60;;;;;;;-147.86;93.64;40405.58;104913;1264;73459;-48
2024/02/26 09:48:45;;;;;;;29.40;8.50;;;;;;;-147.86;93.48;42281.04;105133;1269;61329;-53
2024/02/26 09:51:14;;;;;;;39.40;9.20;;;;;;;-147.86;92.25;43717.68;104941;1264;62236;-53
2024/02/26 09:53:45;;;;;;;39.80;9.60;;;;;;;-147.86;90.99;45071.34;105151;1269;74146;-52
2024/02/26 09:56:13;;;;;;;31.80;9.50;;;;;;;-147.86;90.88;45354.98;104885;1264;63484;-55
2024/02/26 09:58:41;;;;;;;38.00;9.70;;;;;;;-147.86;88.81;45708.39;104830;1264;72486;-54
2024/02/26 10:01:15;;;;;;;34.50;9.30;;;;;;;-147.86;88.99;45861.99;104894;1269;59755;-54
2024/02/26 10:03:46;;;;;;;32.80;8.70;;;;;;;-147.86;89.22;45893.73;105020;1264;62235;-52
2024/02/26 10:06:14;;;;;;;32.90;9.30;;;;;;;-147.86;88.25;45953.29;105044;1264;73460;-52
2024/02/26 10:08:43;;;;;;;39.90;8.30;;;;;;;-147.86;86.93;46087.30;105272;1263;66387;-55
2024/02/26 10:11:11;;;;;;;33.10;9.80;;;;;;;-147.86;87.06;46119.44;105257;1266;73228;-52
2024/02/26 10:13:39;;;;;;;40.40;9.20;;;;;;;-147.86;87.52;46117.48;105226;1266;60178;-55
2024/02/26 10:16:07;;;;;;;34.20;9.80;;;;;;;-147.86;86.86;46146.09;105185;1261;61807;-57
2024/02/26 10:18:54;;;;;;;48.80;9.50;;;;;;;-147.86;85.55;46195.86;105268;1260;73586;-50
2024/02/26 10:21:28;;;;;;;31.30;8.60;;;;;;;-147.86;83.88;46295.39;105245;1266;65781;-56
2024/02/26 10:23:55;;;;;;;36.70;10.60;;;;;;;-147.86;82.33;46375.73;105228;1266;75341;-52
2024/02/26 10:26:24;;;;;;;37.00;12.10;;;;;;;-147.86;81.07;46452.54;105233;1263;59749;-53
2024/02/26 10:28:51;;;;;;;35.90;9.80;;;;;;;-147.86;82.37;46487.42;105208;1260;62138;-56
2024/02/26 10:31:22;;;;;;;32.50;10.00;;;;;;;-147.86;81.93;46491.34;105209;1266;71899;-52
2024/02/26 10:33:50;;;;;;;33.70;9.60;;;;;;;-147.86;78.41;46580.30;105247;1261;64255;-49
2024/02/26 10:36:18;;;;;;;34.40;7.90;;;;;;;-147.86;76.86;46645.75;105222;1260;72658;-55
2024/02/26 10:38:46;;;;;;;27.30;8.70;;;;;;;-147.86;76.41;46683.38;105139;1267;61488;-54
2024/02/26 10:41:15;;;;;;;31.40;9.10;;;;;;;-147.86;75.28;46710.41;105168;1261;59845;-51
2024/02/26 10:43:44;;;;;;;30.50;8.80;;;;;;;-147.86;73.72;46779.79;105227;1260;75274;-53
2024/02/26 10:46:12;;;;;;;30.90;8.30;;;;;;;-147.86;73.84;46799.38;105237;1266;64294;-51
2024/02/26 10:48:40;;;;;;;24.50;7.70;;;;;;;-147.86;76.70;46806.45;105224;1263;73885;-53
2024/02/26 10:51:09;;;;;;;36.30;7.80;;;;;;;-147.86;79.50;46783.71;105161;1269;59989;-54
2024/02/26 10:53:37;;;;;;;39.10;9.20;;;;;;;-147.86;76.78;46771.95;105264;1260;60921;-54
2024/02/26 10:56:06;;;;;;;31.60;9.40;;;;;;;-147.86;78.93;46782.53;105179;1260;72781;-58